sensor_id;sensor_type;location;lat;lon;timestamp;P1;durP1;ratioP1;P2;durP2;ratioP2
3817;SDS011;1924;48.078;11.516;2023-02-15T00:01:47;21.80;;;0.70;;
3817;SDS011;1924;48.078;11.516;2023-02-15T00:04:15;21.97;;;0.70;;
3817;SDS011;1924;48.078;11.516;2023-02-15T00:06:43;22.00;;;0.70;;
3817;SDS011;1924;48.078;11.516;2023-02-15T00:09:10;22.27;;;0.90;;
3817;SDS011;1924;48.078;11.516;2023-02-15T00:11:38;22.03;;;0.70;;
3817;SDS011;1924;48.078;11.516;2023-02-15T00:14:15;22.07;;;0.70;;
3817;SDS011;1924;48.078;11.516;2023-02-15T00:16:44;21.90;;;0.70;;
3817;SDS011;1924;48.078;11.516;2023-02-15T00:19:12;21.97;;;0.70;;
3817;SDS011;1924;48.078;11.516;2023-02-15T00:21:41;21.90;;;0.77;;
3817;SDS011;1924;48.078;11.516;2023-02-15T00:24:08;21.97;;;0.70;;
3817;SDS011;1924;48.078;11.516;2023-02-15T00:26:37;22.10;;;0.70;;
3817;SDS011;1924;48.078;11.516;2023-02-15T00:29:05;21.90;;;0.70;;
3817;SDS011;1924;48.078;11.516;2023-02-15T00:31:32;21.90;;;0.70;;
3817;SDS011;1924;48.078;11.516;2023-02-15T00:34:05;21.90;;;0.70;;
3817;SDS011;1924;48.078;11.516;2023-02-15T00:36:33;22.00;;;0.73;;
3817;SDS011;1924;48.078;11.516;2023-02-15T00:38:59;21.80;;;0.80;;
3817;SDS011;1924;48.078;11.516;2023-02-15T00:41:26;21.80;;;0.70;;
3817;SDS011;1924;48.078;11.516;2023-02-15T00:43:53;21.90;;;0.70;;
3817;SDS011;1924;48.078;11.516;2023-02-15T00:46:20;21.70;;;0.70;;
3817;SDS011;1924;48.078;11.516;2023-02-15T00:48:46;22.00;;;0.80;;
3817;SDS011;1924;48.078;11.516;2023-02-15T00:51:14;22.47;;;1.40;;
3817;SDS011;1924;48.078;11.516;2023-02-15T00:53:42;21.80;;;0.80;;
3817;SDS011;1924;48.078;11.516;2023-02-15T00:56:09;21.97;;;0.73;;
3817;SDS011;1924;48.078;11.516;2023-02-15T00:58:36;21.90;;;0.70;;
3817;SDS011;1924;48.078;11.516;2023-02-15T01:01:03;21.87;;;0.70;;
3817;SDS011;1924;48.078;11.516;2023-02-15T01:03:31;21.97;;;0.80;;
3817;SDS011;1924;48.078;11.516;2023-02-15T01:05:58;21.87;;;0.70;;
3817;SDS011;1924;48.078;11.516;2023-02-15T01:08:26;21.70;;;0.80;;
3817;SDS011;1924;48.078;11.516;2023-02-15T01:10:53;21.93;;;0.73;;
3817;SDS011;1924;48.078;11.516;2023-02-15T01:13:20;21.80;;;0.70;;
3817;SDS011;1924;48.078;11.516;2023-02-15T01:15:51;21.80;;;0.70;;
3817;SDS011;1924;48.078;11.516;2023-02-15T01:18:19;21.80;;;0.80;;
3817;SDS011;1924;48.078;11.516;2023-02-15T01:20:46;21.70;;;0.70;;
3817;SDS011;1924;48.078;11.516;2023-02-15T01:23:12;21.90;;;0.70;;
3817;SDS011;1924;48.078;11.516;2023-02-15T01:25:40;21.73;;;0.70;;
3817;SDS011;1924;48.078;11.516;2023-02-15T01:28:07;21.83;;;0.70;;
3817;SDS011;1924;48.078;11.516;2023-02-15T01:30:34;21.60;;;0.70;;
3817;SDS011;1924;48.078;11.516;2023-02-15T01:33:01;21.90;;;0.70;;
3817;SDS011;1924;48.078;11.516;2023-02-15T01:35:28;21.80;;;0.70;;
3817;SDS011;1924;48.078;11.516;2023-02-15T01:37:55;21.83;;;0.70;;
3817;SDS011;1924;48.078;11.516;2023-02-15T01:40:22;21.80;;;0.70;;
3817;SDS011;1924;48.078;11.516;2023-02-15T01:42:51;21.80;;;0.70;;
3817;SDS011;1924;48.078;11.516;2023-02-15T05:00:19;21.40;;;0.70;;
3817;SDS011;1924;48.078;11.516;2023-02-15T05:02:46;21.53;;;0.70;;
3817;SDS011;1924;48.078;11.516;2023-02-15T05:05:12;21.50;;;0.70;;
3817;SDS011;1924;48.078;11.516;2023-02-15T05:07:40;21.60;;;0.70;;
3817;SDS011;1924;48.078;11.516;2023-02-15T05:10:07;21.57;;;0.70;;
3817;SDS011;1924;48.078;11.516;2023-02-15T05:12:34;21.60;;;0.70;;
3817;SDS011;1924;48.078;11.516;2023-02-15T05:15:01;21.57;;;0.70;;
3817;SDS011;1924;48.078;11.516;2023-02-15T05:17:29;21.60;;;0.70;;
3817;SDS011;1924;48.078;11.516;2023-02-15T05:19:56;21.60;;;0.73;;
3817;SDS011;1924;48.078;11.516;2023-02-15T05:22:23;21.60;;;0.80;;
3817;SDS011;1924;48.078;11.516;2023-02-15T05:24:49;21.53;;;0.73;;
3817;SDS011;1924;48.078;11.516;2023-02-15T05:27:34;21.60;;;0.77;;
3817;SDS011;1924;48.078;11.516;2023-02-15T05:30:18;21.50;;;0.77;;
3817;SDS011;1924;48.078;11.516;2023-02-15T05:32:46;21.57;;;0.77;;
3817;SDS011;1924;48.078;11.516;2023-02-15T05:35:13;21.60;;;0.80;;
3817;SDS011;1924;48.078;11.516;2023-02-15T05:37:41;21.60;;;0.80;;
3817;SDS011;1924;48.078;11.516;2023-02-15T05:40:08;21.43;;;0.80;;
3817;SDS011;1924;48.078;11.516;2023-02-15T05:42:35;21.63;;;0.80;;
3817;SDS011;1924;48.078;11.516;2023-02-15T05:45:02;21.50;;;0.80;;
3817;SDS011;1924;48.078;11.516;2023-02-15T05:47:30;21.50;;;0.80;;
3817;SDS011;1924;48.078;11.516;2023-02-15T05:49:58;21.40;;;0.70;;
3817;SDS011;1924;48.078;11.516;2023-02-15T05:52:25;21.50;;;0.73;;
3817;SDS011;1924;48.078;11.516;2023-02-15T05:54:52;21.50;;;0.77;;
3817;SDS011;1924;48.078;11.516;2023-02-15T05:57:19;21.43;;;0.70;;
3817;SDS011;1924;48.078;11.516;2023-02-15T05:59:45;21.47;;;0.77;;
3817;SDS011;1924;48.078;11.516;2023-02-15T06:02:12;21.50;;;0.80;;
3817;SDS011;1924;48.078;11.516;2023-02-15T06:04:39;21.60;;;0.70;;
3817;SDS011;1924;48.078;11.516;2023-02-15T06:07:07;21.60;;;0.80;;
3817;SDS011;1924;48.078;11.516;2023-02-15T06:09:33;21.50;;;0.70;;
3817;SDS011;1924;48.078;11.516;2023-02-15T06:12:00;21.60;;;0.77;;
3817;SDS011;1924;48.078;11.516;2023-02-15T06:14:27;21.53;;;0.70;;
3817;SDS011;1924;48.078;11.516;2023-02-15T06:16:53;21.60;;;0.80;;
3817;SDS011;1924;48.078;11.516;2023-02-15T06:19:20;21.43;;;0.70;;
3817;SDS011;1924;48.078;11.516;2023-02-15T06:21:47;21.60;;;0.70;;
3817;SDS011;1924;48.078;11.516;2023-02-15T06:24:15;21.43;;;0.73;;
3817;SDS011;1924;48.078;11.516;2023-02-15T06:26:42;21.60;;;0.70;;
3817;SDS011;1924;48.078;11.516;2023-02-15T06:29:09;21.53;;;0.80;;
3817;SDS011;1924;48.078;11.516;2023-02-15T06:31:35;21.50;;;0.70;;
3817;SDS011;1924;48.078;11.516;2023-02-15T06:34:02;21.47;;;0.70;;
3817;SDS011;1924;48.078;11.516;2023-02-15T06:36:29;21.57;;;0.80;;
3817;SDS011;1924;48.078;11.516;2023-02-15T06:38:57;21.40;;;0.70;;
3817;SDS011;1924;48.078;11.516;2023-02-15T06:41:25;21.40;;;0.73;;
3817;SDS011;1924;48.078;11.516;2023-02-15T06:43:51;21.40;;;0.70;;
3817;SDS011;1924;48.078;11.516;2023-02-15T06:46:18;21.50;;;0.70;;
3817;SDS011;1924;48.078;11.516;2023-02-15T06:48:45;21.40;;;0.70;;
3817;SDS011;1924;48.078;11.516;2023-02-15T06:51:12;21.40;;;0.77;;
3817;SDS011;1924;48.078;11.516;2023-02-15T06:53:38;21.43;;;0.80;;
3817;SDS011;1924;48.078;11.516;2023-02-15T06:56:07;21.47;;;0.70;;
3817;SDS011;1924;48.078;11.516;2023-02-15T06:58:37;21.40;;;0.70;;
3817;SDS011;1924;48.078;11.516;2023-02-15T07:01:05;21.47;;;0.70;;
3817;SDS011;1924;48.078;11.516;2023-02-15T07:03:32;21.43;;;0.70;;
3817;SDS011;1924;48.078;11.516;2023-02-15T07:06:00;21.30;;;0.70;;
3817;SDS011;1924;48.078;11.516;2023-02-15T07:08:30;21.50;;;0.70;;
3817;SDS011;1924;48.078;11.516;2023-02-15T07:10:57;21.33;;;0.80;;
3817;SDS011;1924;48.078;11.516;2023-02-15T07:13:45;21.30;;;0.70;;
3817;SDS011;1924;48.078;11.516;2023-02-15T07:16:12;21.40;;;0.70;;
3817;SDS011;1924;48.078;11.516;2023-02-15T07:18:39;21.50;;;0.70;;
3817;SDS011;1924;48.078;11.516;2023-02-15T07:21:06;21.40;;;0.70;;
3817;SDS011;1924;48.078;11.516;2023-02-15T07:23:33;21.40;;;0.70;;
3817;SDS011;1924;48.078;11.516;2023-02-15T07:26:00;21.53;;;0.77;;
3817;SDS011;1924;48.078;11.516;2023-02-15T07:28:27;21.37;;;0.70;;
3817;SDS011;1924;48.078;11.516;2023-02-15T07:30:55;21.40;;;0.70;;
3817;SDS011;1924;48.078;11.516;2023-02-15T07:33:23;21.30;;;0.80;;
3817;SDS011;1924;48.078;11.516;2023-02-15T07:35:52;21.30;;;0.70;;
3817;SDS011;1924;48.078;11.516;2023-02-15T07:38:22;21.40;;;0.70;;
3817;SDS011;1924;48.078;11.516;2023-02-15T07:40:49;21.30;;;0.70;;
3817;SDS011;1924;48.078;11.516;2023-02-15T07:43:16;21.47;;;0.70;;
3817;SDS011;1924;48.078;11.516;2023-02-15T07:45:43;21.40;;;0.70;;
3817;SDS011;1924;48.078;11.516;2023-02-15T07:48:11;21.50;;;0.70;;
3817;SDS011;1924;48.078;11.516;2023-02-15T07:50:38;21.43;;;0.70;;
3817;SDS011;1924;48.078;11.516;2023-02-15T07:53:04;21.40;;;0.70;;
3817;SDS011;1924;48.078;11.516;2023-02-15T07:55:31;21.50;;;0.70;;
3817;SDS011;1924;48.078;11.516;2023-02-15T07:57:58;21.40;;;0.70;;
3817;SDS011;1924;48.078;11.516;2023-02-15T08:00:24;21.40;;;0.70;;
3817;SDS011;1924;48.078;11.516;2023-02-15T08:02:52;21.57;;;0.70;;
3817;SDS011;1924;48.078;11.516;2023-02-15T08:05:35;21.40;;;0.70;;
3817;SDS011;1924;48.078;11.516;2023-02-15T08:08:02;21.60;;;0.70;;
3817;SDS011;1924;48.078;11.516;2023-02-15T08:10:28;21.67;;;0.80;;
3817;SDS011;1924;48.078;11.516;2023-02-15T08:13:09;21.50;;;0.80;;
3817;SDS011;1924;48.078;11.516;2023-02-15T08:15:36;21.63;;;0.80;;
3817;SDS011;1924;48.078;11.516;2023-02-15T08:18:02;21.43;;;0.70;;
3817;SDS011;1924;48.078;11.516;2023-02-15T08:20:29;21.33;;;0.70;;
3817;SDS011;1924;48.078;11.516;2023-02-15T08:22:57;21.33;;;0.70;;
3817;SDS011;1924;48.078;11.516;2023-02-15T08:25:25;21.40;;;0.70;;
3817;SDS011;1924;48.078;11.516;2023-02-15T08:27:51;21.80;;;0.70;;
3817;SDS011;1924;48.078;11.516;2023-02-15T08:30:18;21.70;;;0.70;;
3817;SDS011;1924;48.078;11.516;2023-02-15T08:32:45;21.90;;;0.70;;
3817;SDS011;1924;48.078;11.516;2023-02-15T08:35:11;21.77;;;0.70;;
3817;SDS011;1924;48.078;11.516;2023-02-15T08:37:38;21.80;;;0.70;;
3817;SDS011;1924;48.078;11.516;2023-02-15T08:40:07;21.80;;;0.70;;
3817;SDS011;1924;48.078;11.516;2023-02-15T08:42:34;21.70;;;0.70;;
3817;SDS011;1924;48.078;11.516;2023-02-15T08:45:01;21.80;;;0.70;;
3817;SDS011;1924;48.078;11.516;2023-02-15T08:47:28;21.83;;;0.70;;
3817;SDS011;1924;48.078;11.516;2023-02-15T08:49:54;21.60;;;0.70;;
3817;SDS011;1924;48.078;11.516;2023-02-15T08:52:21;21.57;;;0.70;;
3817;SDS011;1924;48.078;11.516;2023-02-15T08:54:48;21.60;;;0.70;;
3817;SDS011;1924;48.078;11.516;2023-02-15T08:57:16;21.67;;;0.70;;
3817;SDS011;1924;48.078;11.516;2023-02-15T08:59:42;21.67;;;0.70;;
3817;SDS011;1924;48.078;11.516;2023-02-15T09:02:09;21.73;;;0.70;;
3817;SDS011;1924;48.078;11.516;2023-02-15T09:04:36;21.70;;;0.70;;
3817;SDS011;1924;48.078;11.516;2023-02-15T09:07:03;21.80;;;0.70;;
3817;SDS011;1924;48.078;11.516;2023-02-15T09:09:30;21.50;;;0.70;;
3817;SDS011;1924;48.078;11.516;2023-02-15T09:11:57;21.60;;;0.70;;
3817;SDS011;1924;48.078;11.516;2023-02-15T09:14:25;21.83;;;0.70;;
3817;SDS011;1924;48.078;11.516;2023-02-15T09:16:52;21.67;;;0.70;;
3817;SDS011;1924;48.078;11.516;2023-02-15T09:19:19;21.80;;;0.70;;
3817;SDS011;1924;48.078;11.516;2023-02-15T09:21:47;21.70;;;0.70;;
3817;SDS011;1924;48.078;11.516;2023-02-15T09:24:15;21.83;;;0.70;;
3817;SDS011;1924;48.078;11.516;2023-02-15T09:26:43;21.70;;;0.70;;
3817;SDS011;1924;48.078;11.516;2023-02-15T09:29:12;21.70;;;0.70;;
3817;SDS011;1924;48.078;11.516;2023-02-15T09:31:41;21.80;;;0.70;;
3817;SDS011;1924;48.078;11.516;2023-02-15T09:34:10;22.17;;;0.70;;
3817;SDS011;1924;48.078;11.516;2023-02-15T09:36:38;22.37;;;0.70;;
3817;SDS011;1924;48.078;11.516;2023-02-15T09:39:06;22.47;;;0.70;;
3817;SDS011;1924;48.078;11.516;2023-02-15T09:44:34;22.50;;;0.70;;
3817;SDS011;1924;48.078;11.516;2023-02-15T09:50:12;22.90;;;0.70;;
3817;SDS011;1924;48.078;11.516;2023-02-15T09:52:49;22.70;;;0.70;;
3817;SDS011;1924;48.078;11.516;2023-02-15T09:55:42;22.80;;;0.70;;
3817;SDS011;1924;48.078;11.516;2023-02-15T09:58:19;22.50;;;0.70;;
3817;SDS011;1924;48.078;11.516;2023-02-15T10:00:56;22.60;;;0.70;;
3817;SDS011;1924;48.078;11.516;2023-02-15T10:03:33;22.70;;;0.70;;
3817;SDS011;1924;48.078;11.516;2023-02-15T10:06:15;22.60;;;0.70;;
3817;SDS011;1924;48.078;11.516;2023-02-15T10:08:58;22.57;;;0.70;;
3817;SDS011;1924;48.078;11.516;2023-02-15T10:11:34;22.70;;;0.70;;
3817;SDS011;1924;48.078;11.516;2023-02-15T10:14:13;22.70;;;0.70;;
3817;SDS011;1924;48.078;11.516;2023-02-15T10:16:51;22.70;;;0.70;;
3817;SDS011;1924;48.078;11.516;2023-02-15T10:19:27;22.60;;;0.70;;
3817;SDS011;1924;48.078;11.516;2023-02-15T10:22:06;22.77;;;0.70;;
3817;SDS011;1924;48.078;11.516;2023-02-15T10:24:46;22.80;;;0.73;;
3817;SDS011;1924;48.078;11.516;2023-02-15T10:27:21;22.70;;;0.70;;
3817;SDS011;1924;48.078;11.516;2023-02-15T10:29:51;22.77;;;0.70;;
3817;SDS011;1924;48.078;11.516;2023-02-15T10:32:28;22.90;;;0.70;;
3817;SDS011;1924;48.078;11.516;2023-02-15T10:35:03;23.10;;;0.70;;
3817;SDS011;1924;48.078;11.516;2023-02-15T10:37:44;23.30;;;0.70;;
3817;SDS011;1924;48.078;11.516;2023-02-15T10:40:22;23.40;;;0.80;;
3817;SDS011;1924;48.078;11.516;2023-02-15T10:43:01;23.40;;;0.70;;
3817;SDS011;1924;48.078;11.516;2023-02-15T10:45:45;23.60;;;0.80;;
3817;SDS011;1924;48.078;11.516;2023-02-15T10:48:26;23.80;;;0.70;;
3817;SDS011;1924;48.078;11.516;2023-02-15T10:51:14;24.00;;;0.70;;
3817;SDS011;1924;48.078;11.516;2023-02-15T10:53:52;24.10;;;0.73;;
3817;SDS011;1924;48.078;11.516;2023-02-15T10:56:31;24.00;;;0.80;;
3817;SDS011;1924;48.078;11.516;2023-02-15T10:59:11;24.30;;;0.73;;
3817;SDS011;1924;48.078;11.516;2023-02-15T11:01:49;24.40;;;0.80;;
3817;SDS011;1924;48.078;11.516;2023-02-15T11:07:24;24.80;;;0.77;;
3817;SDS011;1924;48.078;11.516;2023-02-15T11:09:56;24.80;;;0.80;;
3817;SDS011;1924;48.078;11.516;2023-02-15T11:12:28;24.90;;;0.80;;
3817;SDS011;1924;48.078;11.516;2023-02-15T11:14:57;24.83;;;0.80;;
3817;SDS011;1924;48.078;11.516;2023-02-15T11:17:30;24.80;;;0.80;;
3817;SDS011;1924;48.078;11.516;2023-02-15T11:20:04;24.90;;;0.80;;
3817;SDS011;1924;48.078;11.516;2023-02-15T11:22:43;24.97;;;0.80;;
3817;SDS011;1924;48.078;11.516;2023-02-15T11:25:16;24.90;;;0.80;;
3817;SDS011;1924;48.078;11.516;2023-02-15T11:27:45;25.00;;;0.80;;
3817;SDS011;1924;48.078;11.516;2023-02-15T11:30:14;24.90;;;0.80;;
3817;SDS011;1924;48.078;11.516;2023-02-15T11:32:45;25.00;;;0.80;;
3817;SDS011;1924;48.078;11.516;2023-02-15T11:35:18;24.90;;;0.80;;
3817;SDS011;1924;48.078;11.516;2023-02-15T11:37:51;25.10;;;0.80;;
3817;SDS011;1924;48.078;11.516;2023-02-15T11:40:24;24.90;;;0.80;;
3817;SDS011;1924;48.078;11.516;2023-02-15T11:42:55;25.17;;;0.80;;
3817;SDS011;1924;48.078;11.516;2023-02-15T11:45:25;25.23;;;0.80;;
3817;SDS011;1924;48.078;11.516;2023-02-15T11:47:53;25.10;;;0.80;;
3817;SDS011;1924;48.078;11.516;2023-02-15T11:50:22;25.10;;;0.80;;
3817;SDS011;1924;48.078;11.516;2023-02-15T11:52:52;25.00;;;0.80;;
3817;SDS011;1924;48.078;11.516;2023-02-15T11:55:22;24.70;;;0.80;;
3817;SDS011;1924;48.078;11.516;2023-02-15T11:57:51;24.80;;;0.80;;
3817;SDS011;1924;48.078;11.516;2023-02-15T12:00:23;24.90;;;0.80;;
3817;SDS011;1924;48.078;11.516;2023-02-15T12:03:00;24.90;;;0.80;;
3817;SDS011;1924;48.078;11.516;2023-02-15T12:05:33;25.13;;;0.80;;
3817;SDS011;1924;48.078;11.516;2023-02-15T12:08:08;24.90;;;0.80;;
3817;SDS011;1924;48.078;11.516;2023-02-15T12:10:40;25.00;;;0.80;;
3817;SDS011;1924;48.078;11.516;2023-02-15T12:13:13;25.20;;;0.80;;
3817;SDS011;1924;48.078;11.516;2023-02-15T12:15:41;25.10;;;0.80;;
3817;SDS011;1924;48.078;11.516;2023-02-15T12:18:17;25.20;;;0.80;;
3817;SDS011;1924;48.078;11.516;2023-02-15T12:20:47;25.10;;;0.80;;
3817;SDS011;1924;48.078;11.516;2023-02-15T12:23:17;25.40;;;0.80;;
3817;SDS011;1924;48.078;11.516;2023-02-15T12:25:48;25.20;;;0.80;;
3817;SDS011;1924;48.078;11.516;2023-02-15T12:28:23;25.60;;;0.80;;
3817;SDS011;1924;48.078;11.516;2023-02-15T12:30:53;25.60;;;0.80;;
3817;SDS011;1924;48.078;11.516;2023-02-15T12:33:24;25.60;;;0.80;;
3817;SDS011;1924;48.078;11.516;2023-02-15T12:35:55;25.70;;;0.80;;
3817;SDS011;1924;48.078;11.516;2023-02-15T12:38:27;25.80;;;0.80;;
3817;SDS011;1924;48.078;11.516;2023-02-15T12:40:56;25.70;;;0.80;;
3817;SDS011;1924;48.078;11.516;2023-02-15T12:43:26;25.60;;;0.80;;
3817;SDS011;1924;48.078;11.516;2023-02-15T12:45:53;25.83;;;0.80;;
3817;SDS011;1924;48.078;11.516;2023-02-15T12:48:40;25.70;;;0.80;;
3817;SDS011;1924;48.078;11.516;2023-02-15T12:51:08;25.80;;;0.80;;
3817;SDS011;1924;48.078;11.516;2023-02-15T12:53:40;26.10;;;0.80;;
3817;SDS011;1924;48.078;11.516;2023-02-15T12:56:08;26.10;;;0.80;;
3817;SDS011;1924;48.078;11.516;2023-02-15T12:58:36;26.20;;;0.80;;
3817;SDS011;1924;48.078;11.516;2023-02-15T13:01:09;26.10;;;0.80;;
3817;SDS011;1924;48.078;11.516;2023-02-15T13:03:38;26.20;;;0.80;;
3817;SDS011;1924;48.078;11.516;2023-02-15T13:06:20;26.37;;;0.80;;
3817;SDS011;1924;48.078;11.516;2023-02-15T13:08:49;26.40;;;0.80;;
3817;SDS011;1924;48.078;11.516;2023-02-15T13:11:19;26.80;;;0.80;;
3817;SDS011;1924;48.078;11.516;2023-02-15T13:13:50;26.67;;;0.80;;
3817;SDS011;1924;48.078;11.516;2023-02-15T13:16:20;26.90;;;0.80;;
3817;SDS011;1924;48.078;11.516;2023-02-15T13:18:55;26.83;;;0.80;;
3817;SDS011;1924;48.078;11.516;2023-02-15T13:21:23;27.10;;;0.80;;
3817;SDS011;1924;48.078;11.516;2023-02-15T13:23:55;27.30;;;0.80;;
3817;SDS011;1924;48.078;11.516;2023-02-15T13:26:25;27.30;;;0.80;;
3817;SDS011;1924;48.078;11.516;2023-02-15T13:28:56;27.30;;;0.80;;
3817;SDS011;1924;48.078;11.516;2023-02-15T13:31:27;27.30;;;0.80;;
3817;SDS011;1924;48.078;11.516;2023-02-15T13:33:58;27.70;;;0.80;;
3817;SDS011;1924;48.078;11.516;2023-02-15T13:36:30;27.70;;;0.80;;
3817;SDS011;1924;48.078;11.516;2023-02-15T13:39:10;27.70;;;0.80;;
3817;SDS011;1924;48.078;11.516;2023-02-15T13:41:47;27.70;;;0.80;;
3817;SDS011;1924;48.078;11.516;2023-02-15T13:44:20;27.80;;;0.80;;
3817;SDS011;1924;48.078;11.516;2023-02-15T13:46:59;27.50;;;0.80;;
3817;SDS011;1924;48.078;11.516;2023-02-15T13:49:40;27.70;;;0.80;;
3817;SDS011;1924;48.078;11.516;2023-02-15T13:52:18;27.80;;;0.80;;
3817;SDS011;1924;48.078;11.516;2023-02-15T13:54:55;27.70;;;0.80;;
3817;SDS011;1924;48.078;11.516;2023-02-15T13:57:46;27.60;;;0.80;;
3817;SDS011;1924;48.078;11.516;2023-02-15T14:00:36;27.43;;;0.80;;
3817;SDS011;1924;48.078;11.516;2023-02-15T14:03:20;27.60;;;0.80;;
3817;SDS011;1924;48.078;11.516;2023-02-15T14:06:10;27.50;;;0.80;;
3817;SDS011;1924;48.078;11.516;2023-02-15T14:08:46;27.47;;;0.80;;
3817;SDS011;1924;48.078;11.516;2023-02-15T14:11:31;27.60;;;0.80;;
3817;SDS011;1924;48.078;11.516;2023-02-15T14:14:11;27.40;;;0.80;;
3817;SDS011;1924;48.078;11.516;2023-02-15T14:16:54;27.30;;;0.80;;
3817;SDS011;1924;48.078;11.516;2023-02-15T14:19:29;27.40;;;0.80;;
3817;SDS011;1924;48.078;11.516;2023-02-15T14:21:59;27.40;;;0.80;;
3817;SDS011;1924;48.078;11.516;2023-02-15T14:24:33;27.40;;;0.80;;
3817;SDS011;1924;48.078;11.516;2023-02-15T14:27:12;27.40;;;0.80;;
3817;SDS011;1924;48.078;11.516;2023-02-15T14:29:49;27.07;;;0.80;;
3817;SDS011;1924;48.078;11.516;2023-02-15T14:32:20;27.13;;;0.80;;
3817;SDS011;1924;48.078;11.516;2023-02-15T14:34:53;27.27;;;0.80;;
3817;SDS011;1924;48.078;11.516;2023-02-15T14:37:24;27.30;;;0.80;;
3817;SDS011;1924;48.078;11.516;2023-02-15T14:40:03;27.37;;;0.80;;
3817;SDS011;1924;48.078;11.516;2023-02-15T14:42:56;27.10;;;0.80;;
3817;SDS011;1924;48.078;11.516;2023-02-15T14:45:28;27.10;;;0.80;;
3817;SDS011;1924;48.078;11.516;2023-02-15T14:48:01;27.30;;;0.80;;
3817;SDS011;1924;48.078;11.516;2023-02-15T14:50:38;27.10;;;0.80;;
3817;SDS011;1924;48.078;11.516;2023-02-15T14:53:20;27.00;;;0.80;;
3817;SDS011;1924;48.078;11.516;2023-02-15T14:56:17;27.20;;;0.80;;
3817;SDS011;1924;48.078;11.516;2023-02-15T14:58:56;27.00;;;0.80;;
3817;SDS011;1924;48.078;11.516;2023-02-15T15:01:35;27.00;;;0.80;;
3817;SDS011;1924;48.078;11.516;2023-02-15T15:04:04;26.87;;;0.80;;
3817;SDS011;1924;48.078;11.516;2023-02-15T15:06:33;27.00;;;0.80;;
3817;SDS011;1924;48.078;11.516;2023-02-15T15:09:14;26.80;;;0.80;;
3817;SDS011;1924;48.078;11.516;2023-02-15T15:11:48;26.80;;;0.80;;
3817;SDS011;1924;48.078;11.516;2023-02-15T15:17:06;26.70;;;0.80;;
3817;SDS011;1924;48.078;11.516;2023-02-15T15:22:38;26.70;;;0.80;;
3817;SDS011;1924;48.078;11.516;2023-02-15T15:25:09;26.60;;;0.80;;
3817;SDS011;1924;48.078;11.516;2023-02-15T15:27:42;26.60;;;0.80;;
3817;SDS011;1924;48.078;11.516;2023-02-15T15:33:35;26.57;;;0.80;;
3817;SDS011;1924;48.078;11.516;2023-02-15T15:36:34;26.33;;;0.80;;
3817;SDS011;1924;48.078;11.516;2023-02-15T15:39:28;26.37;;;0.80;;
3817;SDS011;1924;48.078;11.516;2023-02-15T15:42:27;26.17;;;0.80;;
3817;SDS011;1924;48.078;11.516;2023-02-15T15:45:03;26.10;;;0.80;;
3817;SDS011;1924;48.078;11.516;2023-02-15T15:47:53;26.30;;;0.80;;
3817;SDS011;1924;48.078;11.516;2023-02-15T15:50:28;26.20;;;0.80;;
3817;SDS011;1924;48.078;11.516;2023-02-15T15:52:55;26.10;;;0.80;;
3817;SDS011;1924;48.078;11.516;2023-02-15T15:55:25;26.17;;;0.80;;
3817;SDS011;1924;48.078;11.516;2023-02-15T15:57:56;26.10;;;0.80;;
3817;SDS011;1924;48.078;11.516;2023-02-15T16:00:35;26.00;;;0.80;;
3817;SDS011;1924;48.078;11.516;2023-02-15T16:03:05;26.00;;;0.80;;
3817;SDS011;1924;48.078;11.516;2023-02-15T16:05:40;25.77;;;0.80;;
3817;SDS011;1924;48.078;11.516;2023-02-15T16:08:07;25.90;;;0.80;;
3817;SDS011;1924;48.078;11.516;2023-02-15T16:10:34;25.80;;;0.80;;
3817;SDS011;1924;48.078;11.516;2023-02-15T16:13:04;26.00;;;0.70;;
3817;SDS011;1924;48.078;11.516;2023-02-15T16:15:34;25.90;;;0.80;;
3817;SDS011;1924;48.078;11.516;2023-02-15T16:18:02;25.80;;;0.80;;
3817;SDS011;1924;48.078;11.516;2023-02-15T16:20:30;25.60;;;0.80;;
3817;SDS011;1924;48.078;11.516;2023-02-15T16:23:04;25.70;;;0.80;;
3817;SDS011;1924;48.078;11.516;2023-02-15T16:25:43;25.60;;;0.80;;
3817;SDS011;1924;48.078;11.516;2023-02-15T16:28:19;25.60;;;0.80;;
3817;SDS011;1924;48.078;11.516;2023-02-15T16:30:54;25.60;;;0.80;;
3817;SDS011;1924;48.078;11.516;2023-02-15T16:33:34;25.60;;;0.80;;
3817;SDS011;1924;48.078;11.516;2023-02-15T16:36:02;25.40;;;0.80;;
3817;SDS011;1924;48.078;11.516;2023-02-15T16:38:43;25.30;;;0.80;;
3817;SDS011;1924;48.078;11.516;2023-02-15T16:41:31;25.30;;;0.80;;
3817;SDS011;1924;48.078;11.516;2023-02-15T16:44:03;25.20;;;0.80;;
3817;SDS011;1924;48.078;11.516;2023-02-15T16:46:32;25.23;;;0.80;;
3817;SDS011;1924;48.078;11.516;2023-02-15T16:49:03;25.20;;;0.80;;
3817;SDS011;1924;48.078;11.516;2023-02-15T16:51:33;25.10;;;0.80;;
3817;SDS011;1924;48.078;11.516;2023-02-15T16:54:02;24.97;;;0.80;;
3817;SDS011;1924;48.078;11.516;2023-02-15T16:56:33;24.90;;;0.80;;
3817;SDS011;1924;48.078;11.516;2023-02-15T16:59:02;24.90;;;0.80;;
3817;SDS011;1924;48.078;11.516;2023-02-15T17:01:29;25.00;;;0.80;;
3817;SDS011;1924;48.078;11.516;2023-02-15T17:04:12;24.90;;;0.80;;
3817;SDS011;1924;48.078;11.516;2023-02-15T17:06:40;24.97;;;0.80;;
3817;SDS011;1924;48.078;11.516;2023-02-15T17:09:22;24.70;;;0.80;;
3817;SDS011;1924;48.078;11.516;2023-02-15T17:11:50;24.90;;;0.80;;
3817;SDS011;1924;48.078;11.516;2023-02-15T17:14:21;24.90;;;0.80;;
3817;SDS011;1924;48.078;11.516;2023-02-15T17:16:53;24.80;;;0.80;;
3817;SDS011;1924;48.078;11.516;2023-02-15T17:19:25;24.80;;;0.80;;
3817;SDS011;1924;48.078;11.516;2023-02-15T17:21:55;24.80;;;0.77;;
3817;SDS011;1924;48.078;11.516;2023-02-15T17:24:27;24.60;;;0.80;;
3817;SDS011;1924;48.078;11.516;2023-02-15T17:27:00;24.70;;;0.80;;
3817;SDS011;1924;48.078;11.516;2023-02-15T17:29:33;24.60;;;0.80;;
3817;SDS011;1924;48.078;11.516;2023-02-15T17:32:02;24.60;;;0.80;;
3817;SDS011;1924;48.078;11.516;2023-02-15T17:37:28;24.70;;;0.80;;
3817;SDS011;1924;48.078;11.516;2023-02-15T17:39:57;24.70;;;0.80;;
3817;SDS011;1924;48.078;11.516;2023-02-15T17:42:24;24.50;;;0.80;;
3817;SDS011;1924;48.078;11.516;2023-02-15T17:44:53;24.67;;;0.80;;
3817;SDS011;1924;48.078;11.516;2023-02-15T17:47:20;24.50;;;0.80;;
3817;SDS011;1924;48.078;11.516;2023-02-15T17:49:51;24.60;;;0.80;;
3817;SDS011;1924;48.078;11.516;2023-02-15T17:52:19;24.30;;;0.80;;
3817;SDS011;1924;48.078;11.516;2023-02-15T17:54:46;24.53;;;0.80;;
3817;SDS011;1924;48.078;11.516;2023-02-15T17:57:30;24.30;;;0.80;;
3817;SDS011;1924;48.078;11.516;2023-02-15T17:59:58;24.27;;;0.80;;
3817;SDS011;1924;48.078;11.516;2023-02-15T18:02:42;24.30;;;0.80;;
3817;SDS011;1924;48.078;11.516;2023-02-15T18:05:27;24.37;;;0.80;;
3817;SDS011;1924;48.078;11.516;2023-02-15T18:08:12;24.10;;;0.80;;
3817;SDS011;1924;48.078;11.516;2023-02-15T18:10:57;24.00;;;0.80;;
3817;SDS011;1924;48.078;11.516;2023-02-15T18:13:42;24.27;;;0.80;;
3817;SDS011;1924;48.078;11.516;2023-02-15T18:16:13;24.10;;;0.80;;
3817;SDS011;1924;48.078;11.516;2023-02-15T18:18:41;24.00;;;0.80;;
3817;SDS011;1924;48.078;11.516;2023-02-15T18:21:10;24.10;;;0.80;;
3817;SDS011;1924;48.078;11.516;2023-02-15T18:23:37;24.10;;;0.80;;
3817;SDS011;1924;48.078;11.516;2023-02-15T18:26:04;24.10;;;0.77;;
3817;SDS011;1924;48.078;11.516;2023-02-15T18:28:31;24.17;;;0.80;;
3817;SDS011;1924;48.078;11.516;2023-02-15T18:30:58;24.10;;;0.80;;
3817;SDS011;1924;48.078;11.516;2023-02-15T18:33:31;24.00;;;0.80;;
3817;SDS011;1924;48.078;11.516;2023-02-15T18:36:00;24.00;;;0.80;;
3817;SDS011;1924;48.078;11.516;2023-02-15T18:38:29;23.90;;;0.80;;
3817;SDS011;1924;48.078;11.516;2023-02-15T18:40:56;23.90;;;0.80;;
3817;SDS011;1924;48.078;11.516;2023-02-15T18:43:23;23.97;;;0.80;;
3817;SDS011;1924;48.078;11.516;2023-02-15T18:45:50;23.80;;;0.80;;
3817;SDS011;1924;48.078;11.516;2023-02-15T18:48:16;23.87;;;0.80;;
3817;SDS011;1924;48.078;11.516;2023-02-15T18:50:44;23.80;;;0.80;;